Time;durP1;ratioP1;P1;durP2;ratioP2;P2;SDS_P1;SDS_P2;PMS_P1;PMS_P2;Temp;Humidity;BMP_temperature;BMP_pressure;BME280_temperature;BME280_humidity;BME280_pressure;Samples;Min_cycle;Max_cycle;Signal;HPM_P1;HPM_P2
2022/03/22 09:47:35;;;;;;;38.03;24.38;;;;;;;;;;6233784;22;20075;-90
2022/03/22 09:50:05;;;;;;;35.22;22.58;;;;;;;;;;6189320;23;20074;-89
2022/03/22 09:52:32;;;;;;;40.92;23.73;;;;;;;;;;6192261;23;20040;-88
2022/03/22 09:54:58;;;;;;;41.40;23.45;;;;;;;;;;6167893;23;20023;-89
2022/03/22 09:57:25;;;;;;;39.40;23.20;;;;;;;;;;6188821;23;20016;-89
2022/03/22 09:59:51;;;;;;;37.40;23.45;;;;;;;;;;6164741;23;20020;-89
2022/03/22 10:02:30;;;;;;;38.22;23.73;;;;;;;;;;6188448;23;20440;-90
2022/03/22 10:04:57;;;;;;;38.67;23.67;;;;;;;;;;6189259;23;20472;-88
2022/03/22 10:07:23;;;;;;;40.53;25.60;;;;;;;;;;6189882;23;20018;-90
2022/03/22 10:09:56;;;;;;;34.10;23.38;;;;;;;;;;6240568;23;20386;-89
2022/03/22 10:12:28;;;;;;;38.03;23.42;;;;;;;;;;6188845;23;20521;-90
2022/03/22 10:14:55;;;;;;;40.17;23.08;;;;;;;;;;6189261;23;20012;-88
2022/03/22 10:17:24;;;;;;;38.50;23.77;;;;;;;;;;6191255;23;20066;-90
2022/03/22 10:20:18;;;;;;;41.33;23.73;;;;;;;;;;6208898;23;20016;-89
2022/03/22 10:22:45;;;;;;;38.92;23.42;;;;;;;;;;6188711;23;20467;-90
2022/03/22 10:25:16;;;;;;;37.40;22.48;;;;;;;;;;6189488;23;20012;-91
2022/03/22 10:27:48;;;;;;;33.47;22.48;;;;;;;;;;6193208;23;20015;-89
2022/03/22 10:30:18;;;;;;;39.97;23.33;;;;;;;;;;6191747;23;20008;-89
2022/03/22 10:32:50;;;;;;;34.72;22.67;;;;;;;;;;6188694;23;20098;-89
2022/03/22 10:35:25;;;;;;;37.50;22.98;;;;;;;;;;6188830;23;20016;-89
2022/03/22 10:38:11;;;;;;;36.90;23.70;;;;;;;;;;6189037;23;20031;-89
2022/03/22 10:40:45;;;;;;;41.05;21.55;;;;;;;;;;6188381;23;20012;-90
2022/03/22 10:43:12;;;;;;;36.97;22.23;;;;;;;;;;6188618;23;20020;-88
2022/03/22 10:46:09;;;;;;;35.60;22.08;;;;;;;;;;6188246;23;20012;-88
2022/03/22 10:48:59;;;;;;;37.17;22.60;;;;;;;;;;6187392;23;20059;-88
2022/03/22 10:51:35;;;;;;;37.42;22.80;;;;;;;;;;6190894;23;20043;-89
2022/03/22 10:54:15;;;;;;;39.33;22.80;;;;;;;;;;6188413;23;20161;-88
2022/03/22 10:56:54;;;;;;;40.50;23.75;;;;;;;;;;6210625;22;20016;-86
2022/03/22 10:59:30;;;;;;;35.15;22.67;;;;;;;;;;6190202;23;20012;-88
2022/03/22 11:02:19;;;;;;;42.35;23.77;;;;;;;;;;6214148;23;20016;-89
2022/03/22 11:04:53;;;;;;;37.17;23.42;;;;;;;;;;6189107;23;20514;-88
2022/03/22 11:07:37;;;;;;;40.00;22.65;;;;;;;;;;6189490;23;20008;-87
2022/03/22 11:10:04;;;;;;;40.80;24.17;;;;;;;;;;6188419;23;20472;-88
2022/03/22 11:12:37;;;;;;;38.25;24.38;;;;;;;;;;6186231;23;20038;-88
2022/03/22 11:15:50;;;;;;;41.20;24.65;;;;;;;;;;6179644;23;20020;-88
2022/03/22 11:18:23;;;;;;;41.55;23.63;;;;;;;;;;6158643;23;20012;-88
2022/03/22 11:20:53;;;;;;;37.35;22.05;;;;;;;;;;6186073;23;20020;-88
2022/03/22 11:23:40;;;;;;;42.85;23.77;;;;;;;;;;6185664;23;20094;-88
2022/03/22 11:26:34;;;;;;;41.30;23.40;;;;;;;;;;6189186;23;20051;-88
2022/03/22 11:29:02;;;;;;;40.72;24.13;;;;;;;;;;6188027;23;20023;-88
2022/03/22 11:34:51;;;;;;;39.28;22.90;;;;;;;;;;6237306;23;20043;-88
2022/03/22 11:37:33;;;;;;;40.67;23.17;;;;;;;;;;6186313;23;20016;-89
2022/03/22 11:43:09;;;;;;;35.15;21.92;;;;;;;;;;6210521;23;20016;-88
2022/03/22 11:46:25;;;;;;;;;;;;;;;;;;;;;
2022/03/22 12:15:00;;;;;;;37.70;22.83;;;;;;;;;;6208576;23;20029;-88
2022/03/22 12:17:47;;;;;;;44.10;23.02;;;;;;;;;;6206779;23;20017;-88
2022/03/22 12:20:18;;;;;;;37.17;23.13;;;;;;;;;;6207395;23;20071;-88
2022/03/22 12:23:15;;;;;;;37.72;21.70;;;;;;;;;;6207090;23;20012;-88
2022/03/22 12:26:23;;;;;;;;;;;;;;;;;;;;;
2022/03/22 12:29:30;;;;;;;37.38;22.52;;;;;;;;;;6180869;23;20066;-89
2022/03/22 12:32:22;;;;;;;35.38;22.45;;;;;;;;;;6208464;23;20013;-88
2022/03/22 12:34:57;;;;;;;34.88;20.60;;;;;;;;;;6206181;23;20492;-89
2022/03/22 12:37:45;;;;;;;35.88;21.80;;;;;;;;;;6212781;23;20051;-89
2022/03/22 12:40:37;;;;;;;32.45;20.92;;;;;;;;;;6182808;23;20450;-89
2022/03/22 12:43:23;;;;;;;38.50;23.02;;;;;;;;;;6206438;23;20635;-90
2022/03/22 13:05:28;;;;;;;36.53;22.13;;;;;;;;;;6181622;23;20035;-88
2022/03/22 13:07:56;;;;;;;37.72;21.30;;;;;;;;;;6157115;23;20035;-87
2022/03/22 13:16:34;;;;;;;33.42;19.85;;;;;;;;;;6156381;23;20024;-88
2022/03/22 13:19:32;;;;;;;34.28;20.90;;;;;;;;;;6159181;23;20099;-89
2022/03/22 13:22:16;;;;;;;36.92;21.98;;;;;;;;;;6172361;23;20094;-90
2022/03/22 13:24:44;;;;;;;38.15;20.55;;;;;;;;;;6159205;23;20466;-89
2022/03/22 13:27:30;;;;;;;35.45;20.98;;;;;;;;;;6161657;23;20095;-89
2022/03/22 13:30:01;;;;;;;32.17;21.30;;;;;;;;;;6159845;23;20023;-89
2022/03/22 13:32:47;;;;;;;29.58;19.52;;;;;;;;;;6159204;23;20013;-89
2022/03/22 13:36:10;;;;;;;;;;;;;;;;;;;;;
2022/03/22 14:00:24;;;;;;;;;;;;;;;;;;;;;
2022/03/22 14:03:52;;;;;;;30.10;17.73;;;;;;;;;;6149749;23;20092;-88
2022/03/22 14:06:31;;;;;;;30.00;17.95;;;;;;;;;;6173788;23;20013;-88
2022/03/22 14:09:54;;;;;;;;;;;;;;;;;;;;;
2022/03/22 14:12:45;;;;;;;30.55;20.30;;;;;;;;;;6147990;23;20020;-90
2022/03/22 14:15:52;;;;;;;30.27;20.45;;;;;;;;;;6126489;23;20017;-89
2022/03/22 14:24:52;;;;;;;28.33;18.25;;;;;;;;;;6212344;23;20350;-88
2022/03/22 14:28:07;;;;;;;26.42;18.02;;;;;;;;;;6055382;23;20103;-87
2022/03/22 14:35:46;;;;;;;23.98;15.13;;;;;;;;;;6060836;23;20042;-89
2022/03/22 14:37:24;;;;;;;22.08;15.93;;;;;;;;;;6085674;23;20022;-89
2022/03/22 14:39:50;;;;;;;30.40;19.63;;;;;;;;;;6143553;23;20017;-89
2022/03/22 14:42:20;;;;;;;30.35;20.58;;;;;;;;;;6158722;23;20017;-89
2022/03/22 15:01:03;;;;;;;27.48;18.00;;;;;;;;;;6179601;23;20020;-88
2022/03/22 15:03:32;;;;;;;28.80;17.60;;;;;;;;;;6157811;23;20023;-86
2022/03/22 15:06:03;;;;;;;28.73;19.13;;;;;;;;;;6155092;23;20013;-87
2022/03/22 15:08:31;;;;;;;28.63;17.55;;;;;;;;;;6155281;23;20524;-87
2022/03/22 15:10:57;;;;;;;26.98;15.50;;;;;;;;;;6155221;23;20063;-87
2022/03/22 15:13:25;;;;;;;22.75;15.57;;;;;;;;;;6156604;23;20131;-87
2022/03/22 15:15:54;;;;;;;23.13;15.27;;;;;;;;;;6156427;23;20596;-88
2022/03/22 15:18:20;;;;;;;25.05;14.63;;;;;;;;;;6155019;23;20051;-88
2022/03/22 15:20:46;;;;;;;25.17;16.67;;;;;;;;;;6154278;23;20533;-86
2022/03/22 15:23:15;;;;;;;22.13;14.38;;;;;;;;;;6153699;23;20020;-88
2022/03/22 15:25:44;;;;;;;27.30;17.63;;;;;;;;;;6154544;23;20024;-86
2022/03/22 15:28:10;;;;;;;25.80;16.25;;;;;;;;;;6153508;23;20432;-88
2022/03/22 15:30:37;;;;;;;26.00;16.92;;;;;;;;;;6204316;23;20063;-87
2022/03/22 15:33:03;;;;;;;30.33;19.25;;;;;;;;;;6155861;23;20353;-87
2022/03/22 15:35:30;;;;;;;28.88;18.42;;;;;;;;;;6153555;23;20729;-87
2022/03/22 15:37:58;;;;;;;27.02;17.30;;;;;;;;;;6153561;23;20017;-87
2022/03/22 15:40:25;;;;;;;23.60;17.08;;;;;;;;;;6152608;23;20021;-87
2022/03/22 15:42:51;;;;;;;25.48;17.55;;;;;;;;;;6152244;23;20013;-86
2022/03/22 15:45:18;;;;;;;29.20;19.38;;;;;;;;;;6151780;23;20044;-88
2022/03/22 15:50:27;;;;;;;29.02;21.17;;;;;;;;;;6141568;23;20036;-87
2022/03/22 15:52:58;;;;;;;28.88;20.70;;;;;;;;;;6092534;23;20386;-87
2022/03/22 15:55:24;;;;;;;29.05;19.95;;;;;;;;;;6095642;23;20021;-88
2022/03/22 15:57:55;;;;;;;29.20;20.73;;;;;;;;;;6091839;23;20415;-88
2022/03/22 16:00:22;;;;;;;29.95;20.55;;;;;;;;;;6117775;23;20392;-86
2022/03/22 16:02:49;;;;;;;30.40;19.83;;;;;;;;;;6093073;23;20459;-88
2022/03/22 16:05:16;;;;;;;36.55;20.80;;;;;;;;;;6093267;23;20045;-87
2022/03/22 16:07:43;;;;;;;32.40;20.20;;;;;;;;;;6092251;23;20092;-87
2022/03/22 16:10:10;;;;;;;27.60;19.52;;;;;;;;;;6090196;23;20020;-87
2022/03/22 16:12:43;;;;;;;33.83;22.73;;;;;;;;;;6091206;23;20096;-87
2022/03/22 16:15:10;;;;;;;36.83;21.98;;;;;;;;;;6091470;23;20048;-87
2022/03/22 16:17:44;;;;;;;34.63;22.13;;;;;;;;;;6091552;23;20017;-87
2022/03/22 16:24:05;;;;;;;;;;;;;;;;;;;;;
2022/03/22 16:26:55;;;;;;;33.88;21.75;;;;;;;;;;6058103;23;20069;-86
2022/03/22 16:30:18;;;;;;;;;;;;;;;;;;;;;
2022/03/22 16:39:53;;;;;;;;;;;;;;;;;;;;;
2022/03/22 16:45:49;;;;;;;29.38;20.23;;;;;;;;;;6046857;23;20050;-85
2022/03/22 16:48:22;;;;;;;34.90;21.55;;;;;;;;;;6028248;23;20054;-86
2022/03/22 17:02:38;;;;;;;;;;;;;;;;;;;;;
2022/03/22 17:05:20;;;;;;;36.00;20.23;;;;;;;;;;6046411;23;20019;-87
2022/03/22 17:32:27;;;;;;;30.48;20.40;;;;;;;;;;5766605;24;20030;-87
2022/03/22 17:42:07;;;;;;;;;;;;;;;;;;;;;
2022/03/22 17:44:45;;;;;;;37.58;21.25;;;;;;;;;;6055325;23;20018;-87
2022/03/22 17:54:19;;;;;;;35.33;19.42;;;;;;;;;;5916000;24;20082;-88
2022/03/22 18:47:52;;;;;;;43.95;23.83;;;;;;;;;;6149174;23;20397;-89
2022/03/22 18:54:22;;;;;;;;;;;;;;;;;;;;;
